Huvudsida
METAR-TAF:

METAR-TAF

Flygplatser :

Hammerfests flygplats

Hammerfests, Norge

latitud: 70-40N, longitud: 023-40E, höjd: 8 m

Aktuellt väderrapport

Denna rapport gjordes för 28 minuter sedan, klockan 15:50 UTC
Vind 6 kt från väst/sydväst
Temperatur 5°C
Fuktighet 81%
Tryck 1010 hPa
Sikt 10 km eller mer
Spridda moln på en höjd av 3900 ft
Brutna moln på en höjd av 12000 ft

METAR: ENHF 141550Z 25006KT 9999 SCT039 BKN120 05/02 Q1010 RMK WIND 1254FT 22013KT

Tid: 17:18 (16:18 UTC)

Väderprognos

Denna rapport gjordes för 2 timmar och 18 minuter sedan, klockan 14:00 UTC
Prognos gäller från 14 kl. 15 UTC till 14 kl. 24 UTC
Vind 8 kt från syd/sydväst
Sikt 10 km eller mer
Få moln på en höjd av 2000 ft
Brutna moln på en höjd av 3500 ft

TAF: ENHF 141400Z 1415/1424 21008KT 9999 FEW020 BKN035

Aktuella väderrapporter och prognoser från 4000 flygplatser (METAR- och TAF-rapporter).

De tillgängliga stationerna syns som gula och röda prickar på kartan.

För musen över prickarna för att se namnen på stationerna.

Klicka sedan för att få väderrapporter och prognoser.

För att ändra kartan: Klicka på de gröna knapparna med ett svart kors på för att zooma in; den gröna knappen med ett streck på för att zooma ut; eller på de gröna pilarna för angränsande kartor.


METAR-TAF: